sensor_id;sensor_type;location;lat;lon;timestamp;P1;durP1;ratioP1;P2;durP2;ratioP2
13421;SDS011;6782;55.904;13.396;2023-07-13T00:01:57;4.30;;;2.17;;
13421;SDS011;6782;55.904;13.396;2023-07-13T00:04:44;2.97;;;2.03;;
13421;SDS011;6782;55.904;13.396;2023-07-13T00:07:32;3.17;;;2.17;;
13421;SDS011;6782;55.904;13.396;2023-07-13T00:10:19;5.18;;;2.10;;
13421;SDS011;6782;55.904;13.396;2023-07-13T00:13:07;3.28;;;2.28;;
13421;SDS011;6782;55.904;13.396;2023-07-13T00:15:57;4.85;;;2.53;;
13421;SDS011;6782;55.904;13.396;2023-07-13T00:18:46;5.10;;;2.40;;
13421;SDS011;6782;55.904;13.396;2023-07-13T00:21:34;4.03;;;2.42;;
13421;SDS011;6782;55.904;13.396;2023-07-13T00:24:21;5.07;;;2.30;;
13421;SDS011;6782;55.904;13.396;2023-07-13T00:27:09;6.28;;;2.67;;
13421;SDS011;6782;55.904;13.396;2023-07-13T00:29:57;3.15;;;2.45;;
13421;SDS011;6782;55.904;13.396;2023-07-13T00:32:47;4.88;;;2.65;;
13421;SDS011;6782;55.904;13.396;2023-07-13T00:35:34;3.58;;;2.53;;
13421;SDS011;6782;55.904;13.396;2023-07-13T00:38:23;4.88;;;2.90;;
13421;SDS011;6782;55.904;13.396;2023-07-13T00:41:11;6.13;;;2.65;;
13421;SDS011;6782;55.904;13.396;2023-07-13T00:43:59;4.03;;;2.40;;
13421;SDS011;6782;55.904;13.396;2023-07-13T00:46:46;4.97;;;2.70;;
13421;SDS011;6782;55.904;13.396;2023-07-13T00:49:35;4.30;;;2.70;;
13421;SDS011;6782;55.904;13.396;2023-07-13T00:52:23;6.70;;;2.90;;
13421;SDS011;6782;55.904;13.396;2023-07-13T00:55:11;4.53;;;2.50;;
13421;SDS011;6782;55.904;13.396;2023-07-13T00:58:01;4.10;;;2.30;;
13421;SDS011;6782;55.904;13.396;2023-07-13T01:00:50;3.13;;;2.35;;
13421;SDS011;6782;55.904;13.396;2023-07-13T01:03:38;4.30;;;2.67;;
13421;SDS011;6782;55.904;13.396;2023-07-13T01:06:28;5.00;;;3.25;;
13421;SDS011;6782;55.904;13.396;2023-07-13T01:09:16;8.43;;;2.75;;
13421;SDS011;6782;55.904;13.396;2023-07-13T01:12:03;6.30;;;2.70;;
13421;SDS011;6782;55.904;13.396;2023-07-13T01:14:56;4.18;;;2.72;;
13421;SDS011;6782;55.904;13.396;2023-07-13T01:17:45;4.60;;;2.63;;
13421;SDS011;6782;55.904;13.396;2023-07-13T01:20:33;5.40;;;3.03;;
13421;SDS011;6782;55.904;13.396;2023-07-13T01:23:24;5.80;;;2.97;;
13421;SDS011;6782;55.904;13.396;2023-07-13T01:26:12;7.50;;;3.50;;
13421;SDS011;6782;55.904;13.396;2023-07-13T01:28:59;5.93;;;3.15;;
13421;SDS011;6782;55.904;13.396;2023-07-13T01:31:47;3.60;;;3.08;;
13421;SDS011;6782;55.904;13.396;2023-07-13T01:34:34;5.57;;;3.20;;
13421;SDS011;6782;55.904;13.396;2023-07-13T01:37:22;6.32;;;3.08;;
13421;SDS011;6782;55.904;13.396;2023-07-13T01:40:13;3.65;;;3.05;;
13421;SDS011;6782;55.904;13.396;2023-07-13T01:43:00;6.25;;;3.22;;
13421;SDS011;6782;55.904;13.396;2023-07-13T01:45:48;5.47;;;2.72;;
13421;SDS011;6782;55.904;13.396;2023-07-13T01:48:36;6.15;;;2.90;;
13421;SDS011;6782;55.904;13.396;2023-07-13T01:51:23;6.25;;;3.08;;
13421;SDS011;6782;55.904;13.396;2023-07-13T01:54:11;4.18;;;2.90;;
13421;SDS011;6782;55.904;13.396;2023-07-13T01:57:00;4.80;;;3.13;;
13421;SDS011;6782;55.904;13.396;2023-07-13T01:59:49;4.75;;;2.90;;
13421;SDS011;6782;55.904;13.396;2023-07-13T02:02:36;4.35;;;3.10;;
13421;SDS011;6782;55.904;13.396;2023-07-13T02:05:24;6.70;;;3.13;;
13421;SDS011;6782;55.904;13.396;2023-07-13T02:08:12;10.25;;;3.53;;
13421;SDS011;6782;55.904;13.396;2023-07-13T02:10:59;5.93;;;3.40;;
13421;SDS011;6782;55.904;13.396;2023-07-13T02:13:49;5.05;;;2.85;;
13421;SDS011;6782;55.904;13.396;2023-07-13T02:16:37;5.13;;;3.13;;
13421;SDS011;6782;55.904;13.396;2023-07-13T02:19:26;6.03;;;3.35;;
13421;SDS011;6782;55.904;13.396;2023-07-13T02:22:14;3.67;;;3.20;;
13421;SDS011;6782;55.904;13.396;2023-07-13T02:25:02;7.65;;;3.30;;
13421;SDS011;6782;55.904;13.396;2023-07-13T02:27:49;6.55;;;3.40;;
13421;SDS011;6782;55.904;13.396;2023-07-13T02:30:38;6.40;;;3.17;;
13421;SDS011;6782;55.904;13.396;2023-07-13T02:33:26;7.13;;;3.85;;
13421;SDS011;6782;55.904;13.396;2023-07-13T02:36:13;4.88;;;3.08;;
13421;SDS011;6782;55.904;13.396;2023-07-13T02:39:02;5.55;;;3.25;;
13421;SDS011;6782;55.904;13.396;2023-07-13T02:41:50;5.30;;;2.95;;
13421;SDS011;6782;55.904;13.396;2023-07-13T02:44:38;4.15;;;3.30;;
13421;SDS011;6782;55.904;13.396;2023-07-13T02:47:26;5.95;;;3.10;;
13421;SDS011;6782;55.904;13.396;2023-07-13T02:50:14;7.40;;;3.47;;
13421;SDS011;6782;55.904;13.396;2023-07-13T02:53:01;5.20;;;3.45;;
13421;SDS011;6782;55.904;13.396;2023-07-13T02:55:50;7.55;;;3.80;;
13421;SDS011;6782;55.904;13.396;2023-07-13T02:58:37;8.55;;;3.53;;
13421;SDS011;6782;55.904;13.396;2023-07-13T03:01:25;6.72;;;3.47;;
13421;SDS011;6782;55.904;13.396;2023-07-13T03:04:14;5.75;;;3.50;;
13421;SDS011;6782;55.904;13.396;2023-07-13T03:07:02;5.85;;;3.35;;
13421;SDS011;6782;55.904;13.396;2023-07-13T03:09:53;5.88;;;3.55;;
13421;SDS011;6782;55.904;13.396;2023-07-13T03:12:43;5.50;;;3.45;;
13421;SDS011;6782;55.904;13.396;2023-07-13T03:15:30;5.60;;;3.22;;
13421;SDS011;6782;55.904;13.396;2023-07-13T03:18:17;6.72;;;3.30;;
13421;SDS011;6782;55.904;13.396;2023-07-13T03:21:07;5.63;;;2.90;;
13421;SDS011;6782;55.904;13.396;2023-07-13T03:23:54;7.45;;;3.35;;
13421;SDS011;6782;55.904;13.396;2023-07-13T03:26:42;5.97;;;3.15;;
13421;SDS011;6782;55.904;13.396;2023-07-13T03:29:29;8.00;;;3.10;;
13421;SDS011;6782;55.904;13.396;2023-07-13T03:32:16;4.32;;;3.33;;
13421;SDS011;6782;55.904;13.396;2023-07-13T03:35:04;7.88;;;3.13;;
13421;SDS011;6782;55.904;13.396;2023-07-13T03:37:54;6.15;;;3.17;;
13421;SDS011;6782;55.904;13.396;2023-07-13T03:40:42;6.72;;;3.10;;
13421;SDS011;6782;55.904;13.396;2023-07-13T03:43:30;5.82;;;3.38;;
13421;SDS011;6782;55.904;13.396;2023-07-13T03:46:17;5.57;;;3.30;;
13421;SDS011;6782;55.904;13.396;2023-07-13T03:49:05;8.27;;;3.50;;
13421;SDS011;6782;55.904;13.396;2023-07-13T03:51:52;4.13;;;3.28;;
13421;SDS011;6782;55.904;13.396;2023-07-13T03:54:41;6.05;;;3.08;;
13421;SDS011;6782;55.904;13.396;2023-07-13T03:57:29;5.28;;;3.28;;
13421;SDS011;6782;55.904;13.396;2023-07-13T04:00:16;4.75;;;2.80;;
13421;SDS011;6782;55.904;13.396;2023-07-13T04:03:04;4.03;;;2.30;;
13421;SDS011;6782;55.904;13.396;2023-07-13T04:05:51;4.57;;;2.83;;
13421;SDS011;6782;55.904;13.396;2023-07-13T04:08:39;5.43;;;3.10;;
13421;SDS011;6782;55.904;13.396;2023-07-13T04:11:29;4.50;;;2.60;;
13421;SDS011;6782;55.904;13.396;2023-07-13T04:14:18;5.82;;;2.90;;
13421;SDS011;6782;55.904;13.396;2023-07-13T04:17:05;6.47;;;2.67;;
13421;SDS011;6782;55.904;13.396;2023-07-13T04:19:53;5.35;;;2.58;;
13421;SDS011;6782;55.904;13.396;2023-07-13T04:22:40;8.05;;;2.75;;
13421;SDS011;6782;55.904;13.396;2023-07-13T04:25:28;6.50;;;2.63;;
13421;SDS011;6782;55.904;13.396;2023-07-13T04:28:17;5.80;;;2.78;;
13421;SDS011;6782;55.904;13.396;2023-07-13T04:31:05;7.60;;;3.05;;
13421;SDS011;6782;55.904;13.396;2023-07-13T04:33:52;4.43;;;2.75;;
13421;SDS011;6782;55.904;13.396;2023-07-13T04:36:40;6.72;;;3.60;;
13421;SDS011;6782;55.904;13.396;2023-07-13T04:39:27;6.53;;;3.10;;
13421;SDS011;6782;55.904;13.396;2023-07-13T04:42:15;6.72;;;2.90;;
13421;SDS011;6782;55.904;13.396;2023-07-13T04:45:04;5.53;;;3.20;;
13421;SDS011;6782;55.904;13.396;2023-07-13T04:47:52;5.80;;;3.03;;
13421;SDS011;6782;55.904;13.396;2023-07-13T04:50:39;5.90;;;3.67;;
13421;SDS011;6782;55.904;13.396;2023-07-13T04:53:28;7.30;;;3.42;;
13421;SDS011;6782;55.904;13.396;2023-07-13T04:56:17;6.20;;;3.50;;
13421;SDS011;6782;55.904;13.396;2023-07-13T04:59:05;6.22;;;3.45;;
13421;SDS011;6782;55.904;13.396;2023-07-13T05:01:54;6.50;;;3.13;;
13421;SDS011;6782;55.904;13.396;2023-07-13T05:04:42;6.63;;;3.22;;
13421;SDS011;6782;55.904;13.396;2023-07-13T05:07:29;6.18;;;2.83;;
13421;SDS011;6782;55.904;13.396;2023-07-13T05:10:19;7.47;;;3.55;;
13421;SDS011;6782;55.904;13.396;2023-07-13T05:13:07;4.25;;;3.05;;
13421;SDS011;6782;55.904;13.396;2023-07-13T05:15:55;7.43;;;3.28;;
13421;SDS011;6782;55.904;13.396;2023-07-13T05:18:46;7.55;;;3.40;;
13421;SDS011;6782;55.904;13.396;2023-07-13T05:21:33;9.00;;;3.30;;
13421;SDS011;6782;55.904;13.396;2023-07-13T05:24:21;4.75;;;3.03;;
13421;SDS011;6782;55.904;13.396;2023-07-13T05:27:09;5.53;;;2.97;;
13421;SDS011;6782;55.904;13.396;2023-07-13T05:29:56;6.13;;;2.83;;
13421;SDS011;6782;55.904;13.396;2023-07-13T05:32:44;5.40;;;3.50;;
13421;SDS011;6782;55.904;13.396;2023-07-13T05:35:33;5.85;;;3.05;;
13421;SDS011;6782;55.904;13.396;2023-07-13T05:38:20;5.15;;;3.08;;
13421;SDS011;6782;55.904;13.396;2023-07-13T05:41:08;5.65;;;2.70;;
13421;SDS011;6782;55.904;13.396;2023-07-13T05:43:55;6.80;;;3.17;;
13421;SDS011;6782;55.904;13.396;2023-07-13T05:46:42;6.47;;;3.10;;
13421;SDS011;6782;55.904;13.396;2023-07-13T05:49:29;7.57;;;2.55;;
13421;SDS011;6782;55.904;13.396;2023-07-13T05:52:18;8.38;;;2.67;;
13421;SDS011;6782;55.904;13.396;2023-07-13T05:55:06;4.70;;;2.53;;
13421;SDS011;6782;55.904;13.396;2023-07-13T05:57:54;10.35;;;2.88;;
13421;SDS011;6782;55.904;13.396;2023-07-13T06:00:43;6.30;;;2.83;;
13421;SDS011;6782;55.904;13.396;2023-07-13T06:03:30;4.45;;;2.85;;
13421;SDS011;6782;55.904;13.396;2023-07-13T06:06:18;4.45;;;2.70;;
13421;SDS011;6782;55.904;13.396;2023-07-13T06:09:07;5.18;;;2.63;;
13421;SDS011;6782;55.904;13.396;2023-07-13T06:11:54;4.55;;;2.38;;
13421;SDS011;6782;55.904;13.396;2023-07-13T06:14:42;4.25;;;3.00;;
13421;SDS011;6782;55.904;13.396;2023-07-13T06:17:30;4.72;;;2.70;;
13421;SDS011;6782;55.904;13.396;2023-07-13T06:20:18;5.03;;;2.83;;
13421;SDS011;6782;55.904;13.396;2023-07-13T06:23:05;3.28;;;2.53;;
13421;SDS011;6782;55.904;13.396;2023-07-13T06:25:54;6.13;;;2.72;;
13421;SDS011;6782;55.904;13.396;2023-07-13T06:28:42;4.90;;;3.13;;
13421;SDS011;6782;55.904;13.396;2023-07-13T06:31:32;5.47;;;2.50;;
13421;SDS011;6782;55.904;13.396;2023-07-13T06:34:19;6.45;;;2.88;;
13421;SDS011;6782;55.904;13.396;2023-07-13T06:37:06;4.38;;;2.80;;
13421;SDS011;6782;55.904;13.396;2023-07-13T06:39:54;5.30;;;3.13;;
13421;SDS011;6782;55.904;13.396;2023-07-13T06:42:43;6.95;;;3.05;;
13421;SDS011;6782;55.904;13.396;2023-07-13T06:45:32;2.88;;;2.53;;
13421;SDS011;6782;55.904;13.396;2023-07-13T06:48:21;5.88;;;3.15;;
13421;SDS011;6782;55.904;13.396;2023-07-13T06:51:09;3.88;;;3.25;;
13421;SDS011;6782;55.904;13.396;2023-07-13T06:53:56;8.18;;;3.13;;
13421;SDS011;6782;55.904;13.396;2023-07-13T06:56:44;6.47;;;3.38;;
13421;SDS011;6782;55.904;13.396;2023-07-13T06:59:32;9.05;;;2.90;;
13421;SDS011;6782;55.904;13.396;2023-07-13T07:02:20;4.57;;;2.85;;
13421;SDS011;6782;55.904;13.396;2023-07-13T07:05:07;5.25;;;2.72;;
13421;SDS011;6782;55.904;13.396;2023-07-13T07:07:55;4.90;;;2.53;;
13421;SDS011;6782;55.904;13.396;2023-07-13T07:10:42;4.03;;;2.50;;
13421;SDS011;6782;55.904;13.396;2023-07-13T07:13:30;4.75;;;2.28;;
13421;SDS011;6782;55.904;13.396;2023-07-13T07:16:20;4.72;;;2.55;;
13421;SDS011;6782;55.904;13.396;2023-07-13T07:19:08;6.15;;;2.30;;
13421;SDS011;6782;55.904;13.396;2023-07-13T07:21:55;4.20;;;2.13;;
13421;SDS011;6782;55.904;13.396;2023-07-13T07:24:43;4.13;;;2.20;;
13421;SDS011;6782;55.904;13.396;2023-07-13T07:27:30;2.67;;;1.83;;
13421;SDS011;6782;55.904;13.396;2023-07-13T07:30:18;3.67;;;2.30;;
13421;SDS011;6782;55.904;13.396;2023-07-13T07:33:07;4.07;;;2.40;;
13421;SDS011;6782;55.904;13.396;2023-07-13T07:35:55;5.10;;;2.20;;
13421;SDS011;6782;55.904;13.396;2023-07-13T07:38:42;5.13;;;2.25;;
13421;SDS011;6782;55.904;13.396;2023-07-13T07:41:30;3.42;;;2.00;;
13421;SDS011;6782;55.904;13.396;2023-07-13T07:44:17;3.38;;;1.98;;
13421;SDS011;6782;55.904;13.396;2023-07-13T07:47:05;3.55;;;2.05;;
13421;SDS011;6782;55.904;13.396;2023-07-13T07:49:54;4.22;;;1.95;;
13421;SDS011;6782;55.904;13.396;2023-07-13T07:52:42;3.40;;;2.13;;
13421;SDS011;6782;55.904;13.396;2023-07-13T07:55:30;3.10;;;1.80;;
13421;SDS011;6782;55.904;13.396;2023-07-13T07:58:19;3.83;;;2.25;;
13421;SDS011;6782;55.904;13.396;2023-07-13T08:01:07;2.70;;;1.85;;
13421;SDS011;6782;55.904;13.396;2023-07-13T08:03:55;4.28;;;2.38;;
13421;SDS011;6782;55.904;13.396;2023-07-13T08:06:43;7.80;;;2.65;;
13421;SDS011;6782;55.904;13.396;2023-07-13T08:09:30;4.88;;;2.45;;
13421;SDS011;6782;55.904;13.396;2023-07-13T08:12:19;3.80;;;2.50;;
13421;SDS011;6782;55.904;13.396;2023-07-13T08:15:09;8.60;;;2.40;;
13421;SDS011;6782;55.904;13.396;2023-07-13T08:17:59;5.38;;;2.70;;
13421;SDS011;6782;55.904;13.396;2023-07-13T08:20:46;5.28;;;2.83;;
13421;SDS011;6782;55.904;13.396;2023-07-13T08:23:35;5.05;;;2.30;;
13421;SDS011;6782;55.904;13.396;2023-07-13T08:26:23;5.35;;;2.55;;
13421;SDS011;6782;55.904;13.396;2023-07-13T08:29:10;4.78;;;2.47;;
13421;SDS011;6782;55.904;13.396;2023-07-13T08:31:58;7.28;;;2.50;;
13421;SDS011;6782;55.904;13.396;2023-07-13T08:34:45;3.40;;;2.28;;
13421;SDS011;6782;55.904;13.396;2023-07-13T08:37:33;8.23;;;2.90;;
13421;SDS011;6782;55.904;13.396;2023-07-13T08:40:25;7.35;;;3.28;;
13421;SDS011;6782;55.904;13.396;2023-07-13T08:43:15;5.50;;;2.85;;
13421;SDS011;6782;55.904;13.396;2023-07-13T08:46:05;2.33;;;2.13;;
13421;SDS011;6782;55.904;13.396;2023-07-13T08:48:58;3.20;;;2.13;;
13421;SDS011;6782;55.904;13.396;2023-07-13T08:51:49;4.47;;;2.65;;
13421;SDS011;6782;55.904;13.396;2023-07-13T08:54:42;5.45;;;2.40;;
13421;SDS011;6782;55.904;13.396;2023-07-13T08:57:35;3.15;;;2.85;;
13421;SDS011;6782;55.904;13.396;2023-07-13T09:00:23;4.55;;;2.85;;
13421;SDS011;6782;55.904;13.396;2023-07-13T09:03:19;4.35;;;3.13;;
13421;SDS011;6782;55.904;13.396;2023-07-13T09:06:10;4.55;;;3.10;;
13421;SDS011;6782;55.904;13.396;2023-07-13T09:09:03;6.07;;;3.55;;
13421;SDS011;6782;55.904;13.396;2023-07-13T09:11:59;3.20;;;2.88;;
13421;SDS011;6782;55.904;13.396;2023-07-13T09:14:56;5.47;;;2.95;;
13421;SDS011;6782;55.904;13.396;2023-07-13T09:17:47;4.25;;;3.22;;
13421;SDS011;6782;55.904;13.396;2023-07-13T09:20:37;5.38;;;2.83;;
13421;SDS011;6782;55.904;13.396;2023-07-13T09:23:29;5.43;;;2.83;;
13421;SDS011;6782;55.904;13.396;2023-07-13T09:26:19;4.43;;;2.53;;
13421;SDS011;6782;55.904;13.396;2023-07-13T09:29:10;4.15;;;2.10;;
13421;SDS011;6782;55.904;13.396;2023-07-13T09:32:06;4.28;;;2.30;;
13421;SDS011;6782;55.904;13.396;2023-07-13T09:34:59;4.32;;;2.20;;
13421;SDS011;6782;55.904;13.396;2023-07-13T09:37:48;3.25;;;2.10;;
13421;SDS011;6782;55.904;13.396;2023-07-13T09:40:39;3.53;;;1.95;;
13421;SDS011;6782;55.904;13.396;2023-07-13T09:43:34;5.20;;;2.05;;
13421;SDS011;6782;55.904;13.396;2023-07-13T09:46:21;4.85;;;2.13;;
13421;SDS011;6782;55.904;13.396;2023-07-13T09:49:10;3.22;;;1.98;;
13421;SDS011;6782;55.904;13.396;2023-07-13T09:51:59;5.60;;;2.42;;
13421;SDS011;6782;55.904;13.396;2023-07-13T09:54:49;4.25;;;2.10;;
13421;SDS011;6782;55.904;13.396;2023-07-13T09:57:39;5.22;;;2.20;;
13421;SDS011;6782;55.904;13.396;2023-07-13T10:00:36;5.18;;;2.10;;
13421;SDS011;6782;55.904;13.396;2023-07-13T10:03:27;3.67;;;1.90;;
13421;SDS011;6782;55.904;13.396;2023-07-13T10:06:20;3.17;;;1.73;;
13421;SDS011;6782;55.904;13.396;2023-07-13T10:09:09;3.13;;;1.80;;
13421;SDS011;6782;55.904;13.396;2023-07-13T10:12:01;4.40;;;2.08;;
13421;SDS011;6782;55.904;13.396;2023-07-13T10:14:50;5.30;;;2.28;;
13421;SDS011;6782;55.904;13.396;2023-07-13T10:17:40;1.80;;;1.63;;
13421;SDS011;6782;55.904;13.396;2023-07-13T10:20:29;2.72;;;1.70;;
13421;SDS011;6782;55.904;13.396;2023-07-13T10:23:20;1.95;;;1.42;;
13421;SDS011;6782;55.904;13.396;2023-07-13T10:26:13;2.30;;;1.75;;
13421;SDS011;6782;55.904;13.396;2023-07-13T10:29:06;1.85;;;1.40;;
13421;SDS011;6782;55.904;13.396;2023-07-13T10:31:59;2.35;;;1.63;;
13421;SDS011;6782;55.904;13.396;2023-07-13T10:34:47;2.88;;;1.92;;
13421;SDS011;6782;55.904;13.396;2023-07-13T10:37:40;3.38;;;1.80;;
13421;SDS011;6782;55.904;13.396;2023-07-13T10:40:34;2.70;;;2.00;;
13421;SDS011;6782;55.904;13.396;2023-07-13T10:43:27;2.92;;;1.65;;
13421;SDS011;6782;55.904;13.396;2023-07-13T10:46:23;2.45;;;1.50;;
13421;SDS011;6782;55.904;13.396;2023-07-13T10:49:13;2.72;;;1.70;;
13421;SDS011;6782;55.904;13.396;2023-07-13T10:52:03;12.88;;;6.05;;
13421;SDS011;6782;55.904;13.396;2023-07-13T10:54:52;1.98;;;1.60;;
13421;SDS011;6782;55.904;13.396;2023-07-13T10:57:43;4.95;;;1.92;;
13421;SDS011;6782;55.904;13.396;2023-07-13T11:00:31;11.35;;;5.07;;
13421;SDS011;6782;55.904;13.396;2023-07-13T11:03:20;13.13;;;5.25;;
13421;SDS011;6782;55.904;13.396;2023-07-13T11:06:11;19.92;;;8.23;;
13421;SDS011;6782;55.904;13.396;2023-07-13T11:09:17;3.03;;;2.20;;
13421;SDS011;6782;55.904;13.396;2023-07-13T11:12:07;3.33;;;1.90;;
13421;SDS011;6782;55.904;13.396;2023-07-13T11:15:05;5.13;;;2.70;;
13421;SDS011;6782;55.904;13.396;2023-07-13T11:17:59;3.63;;;2.38;;
13421;SDS011;6782;55.904;13.396;2023-07-13T11:20:52;4.28;;;2.63;;
13421;SDS011;6782;55.904;13.396;2023-07-13T11:24:01;13.40;;;6.22;;
13421;SDS011;6782;55.904;13.396;2023-07-13T11:26:52;7.57;;;3.35;;
13421;SDS011;6782;55.904;13.396;2023-07-13T11:29:39;5.05;;;3.30;;
13421;SDS011;6782;55.904;13.396;2023-07-13T11:32:30;9.32;;;5.45;;
13421;SDS011;6782;55.904;13.396;2023-07-13T11:35:21;4.28;;;2.60;;
13421;SDS011;6782;55.904;13.396;2023-07-13T11:38:12;3.58;;;2.25;;
13421;SDS011;6782;55.904;13.396;2023-07-13T11:41:14;8.68;;;3.35;;
13421;SDS011;6782;55.904;13.396;2023-07-13T11:44:10;4.57;;;2.38;;
13421;SDS011;6782;55.904;13.396;2023-07-13T11:47:00;3.88;;;2.42;;
13421;SDS011;6782;55.904;13.396;2023-07-13T11:49:57;4.75;;;2.47;;
13421;SDS011;6782;55.904;13.396;2023-07-13T11:52:45;8.38;;;3.30;;
13421;SDS011;6782;55.904;13.396;2023-07-13T11:55:34;4.22;;;3.03;;
13421;SDS011;6782;55.904;13.396;2023-07-13T11:58:25;4.28;;;2.17;;
13421;SDS011;6782;55.904;13.396;2023-07-13T12:01:16;2.88;;;2.10;;
13421;SDS011;6782;55.904;13.396;2023-07-13T12:04:08;2.33;;;2.10;;
13421;SDS011;6782;55.904;13.396;2023-07-13T12:07:14;3.60;;;1.83;;
13421;SDS011;6782;55.904;13.396;2023-07-13T12:10:03;2.63;;;1.77;;
13421;SDS011;6782;55.904;13.396;2023-07-13T12:13:05;2.70;;;1.80;;
13421;SDS011;6782;55.904;13.396;2023-07-13T12:15:53;3.53;;;1.63;;
13421;SDS011;6782;55.904;13.396;2023-07-13T12:18:41;4.05;;;2.40;;
13421;SDS011;6782;55.904;13.396;2023-07-13T12:21:32;2.67;;;1.80;;
13421;SDS011;6782;55.904;13.396;2023-07-13T12:24:27;3.30;;;1.70;;
13421;SDS011;6782;55.904;13.396;2023-07-13T12:27:18;1.70;;;1.60;;
13421;SDS011;6782;55.904;13.396;2023-07-13T12:30:21;1.80;;;1.33;;
13421;SDS011;6782;55.904;13.396;2023-07-13T12:33:12;3.63;;;1.50;;
13421;SDS011;6782;55.904;13.396;2023-07-13T12:36:00;2.13;;;1.90;;
13421;SDS011;6782;55.904;13.396;2023-07-13T12:38:50;1.60;;;1.50;;
13421;SDS011;6782;55.904;13.396;2023-07-13T12:41:40;1.95;;;1.58;;
13421;SDS011;6782;55.904;13.396;2023-07-13T12:44:29;2.10;;;1.50;;
13421;SDS011;6782;55.904;13.396;2023-07-13T12:47:19;3.25;;;1.65;;
13421;SDS011;6782;55.904;13.396;2023-07-13T12:50:12;3.10;;;1.70;;
13421;SDS011;6782;55.904;13.396;2023-07-13T12:53:02;2.88;;;1.60;;
13421;SDS011;6782;55.904;13.396;2023-07-13T12:55:53;1.63;;;1.50;;
13421;SDS011;6782;55.904;13.396;2023-07-13T12:58:46;2.15;;;1.50;;
13421;SDS011;6782;55.904;13.396;2023-07-13T13:01:39;2.00;;;1.40;;
13421;SDS011;6782;55.904;13.396;2023-07-13T13:04:28;3.83;;;1.30;;
13421;SDS011;6782;55.904;13.396;2023-07-13T13:07:16;1.55;;;1.38;;
13421;SDS011;6782;55.904;13.396;2023-07-13T13:10:10;1.25;;;1.10;;
13421;SDS011;6782;55.904;13.396;2023-07-13T13:12:59;1.55;;;1.45;;
13421;SDS011;6782;55.904;13.396;2023-07-13T13:15:48;1.40;;;1.20;;
13421;SDS011;6782;55.904;13.396;2023-07-13T13:18:35;1.88;;;1.45;;
13421;SDS011;6782;55.904;13.396;2023-07-13T13:21:23;1.80;;;1.70;;
13421;SDS011;6782;55.904;13.396;2023-07-13T13:24:11;2.22;;;1.40;;
13421;SDS011;6782;55.904;13.396;2023-07-13T13:26:59;1.67;;;1.48;;
13421;SDS011;6782;55.904;13.396;2023-07-13T13:29:50;1.38;;;1.27;;
13421;SDS011;6782;55.904;13.396;2023-07-13T13:32:40;1.60;;;1.50;;
13421;SDS011;6782;55.904;13.396;2023-07-13T13:35:29;3.08;;;1.38;;
13421;SDS011;6782;55.904;13.396;2023-07-13T13:38:18;1.60;;;1.50;;
13421;SDS011;6782;55.904;13.396;2023-07-13T13:41:09;2.92;;;1.52;;
13421;SDS011;6782;55.904;13.396;2023-07-13T13:43:58;2.70;;;1.60;;
13421;SDS011;6782;55.904;13.396;2023-07-13T13:46:47;1.60;;;1.20;;
13421;SDS011;6782;55.904;13.396;2023-07-13T13:49:39;2.25;;;1.52;;
13421;SDS011;6782;55.904;13.396;2023-07-13T13:52:27;3.00;;;1.35;;
13421;SDS011;6782;55.904;13.396;2023-07-13T13:55:15;2.45;;;1.60;;
13421;SDS011;6782;55.904;13.396;2023-07-13T13:58:04;2.38;;;1.25;;
13421;SDS011;6782;55.904;13.396;2023-07-13T14:00:51;3.70;;;1.70;;
13421;SDS011;6782;55.904;13.396;2023-07-13T14:03:39;2.60;;;1.70;;
13421;SDS011;6782;55.904;13.396;2023-07-13T14:06:28;1.55;;;1.33;;
13421;SDS011;6782;55.904;13.396;2023-07-13T14:09:17;2.38;;;1.35;;
13421;SDS011;6782;55.904;13.396;2023-07-13T14:12:08;1.40;;;1.30;;
13421;SDS011;6782;55.904;13.396;2023-07-13T14:14:58;3.10;;;1.52;;
13421;SDS011;6782;55.904;13.396;2023-07-13T14:17:46;1.52;;;1.30;;
13421;SDS011;6782;55.904;13.396;2023-07-13T14:20:35;1.40;;;1.30;;
13421;SDS011;6782;55.904;13.396;2023-07-13T14:23:25;3.05;;;1.92;;
13421;SDS011;6782;55.904;13.396;2023-07-13T14:26:13;1.95;;;1.60;;
13421;SDS011;6782;55.904;13.396;2023-07-13T14:29:02;2.97;;;1.92;;
13421;SDS011;6782;55.904;13.396;2023-07-13T14:32:01;2.50;;;1.83;;
13421;SDS011;6782;55.904;13.396;2023-07-13T14:34:50;1.98;;;1.70;;
13421;SDS011;6782;55.904;13.396;2023-07-13T14:37:38;1.40;;;1.30;;
13421;SDS011;6782;55.904;13.396;2023-07-13T14:40:31;2.28;;;1.50;;
13421;SDS011;6782;55.904;13.396;2023-07-13T14:43:19;2.75;;;1.50;;
13421;SDS011;6782;55.904;13.396;2023-07-13T14:46:16;2.58;;;1.55;;
13421;SDS011;6782;55.904;13.396;2023-07-13T14:49:13;2.28;;;1.30;;
13421;SDS011;6782;55.904;13.396;2023-07-13T14:52:10;2.25;;;1.50;;
13421;SDS011;6782;55.904;13.396;2023-07-13T14:54:59;2.88;;;1.55;;
13421;SDS011;6782;55.904;13.396;2023-07-13T14:57:48;3.63;;;1.80;;
13421;SDS011;6782;55.904;13.396;2023-07-13T15:00:37;2.25;;;1.35;;
13421;SDS011;6782;55.904;13.396;2023-07-13T15:03:25;1.90;;;1.30;;
13421;SDS011;6782;55.904;13.396;2023-07-13T15:06:13;1.88;;;1.40;;
13421;SDS011;6782;55.904;13.396;2023-07-13T15:09:01;1.55;;;1.17;;
13421;SDS011;6782;55.904;13.396;2023-07-13T15:11:49;2.20;;;1.40;;
13421;SDS011;6782;55.904;13.396;2023-07-13T15:14:38;2.90;;;1.17;;
13421;SDS011;6782;55.904;13.396;2023-07-13T15:17:26;1.13;;;1.00;;
13421;SDS011;6782;55.904;13.396;2023-07-13T15:20:27;1.92;;;1.25;;
13421;SDS011;6782;55.904;13.396;2023-07-13T15:23:17;1.58;;;1.13;;
13421;SDS011;6782;55.904;13.396;2023-07-13T15:26:05;1.88;;;1.25;;
13421;SDS011;6782;55.904;13.396;2023-07-13T15:28:52;1.90;;;1.17;;
13421;SDS011;6782;55.904;13.396;2023-07-13T15:31:41;1.13;;;1.02;;
13421;SDS011;6782;55.904;13.396;2023-07-13T15:34:29;1.67;;;0.90;;
13421;SDS011;6782;55.904;13.396;2023-07-13T15:37:16;1.40;;;1.10;;
13421;SDS011;6782;55.904;13.396;2023-07-13T15:40:06;2.00;;;1.13;;
13421;SDS011;6782;55.904;13.396;2023-07-13T15:42:54;1.60;;;1.02;;
13421;SDS011;6782;55.904;13.396;2023-07-13T15:45:42;1.67;;;1.02;;
13421;SDS011;6782;55.904;13.396;2023-07-13T15:48:32;2.13;;;1.30;;
13421;SDS011;6782;55.904;13.396;2023-07-13T15:51:20;1.73;;;1.15;;
13421;SDS011;6782;55.904;13.396;2023-07-13T15:54:12;1.65;;;1.08;;
13421;SDS011;6782;55.904;13.396;2023-07-13T15:57:01;2.92;;;1.40;;
13421;SDS011;6782;55.904;13.396;2023-07-13T15:59:52;2.75;;;1.17;;
13421;SDS011;6782;55.904;13.396;2023-07-13T16:02:39;1.75;;;1.38;;
13421;SDS011;6782;55.904;13.396;2023-07-13T16:05:29;1.30;;;1.20;;
13421;SDS011;6782;55.904;13.396;2023-07-13T16:08:19;2.80;;;1.33;;
13421;SDS011;6782;55.904;13.396;2023-07-13T16:11:12;1.48;;;1.27;;
13421;SDS011;6782;55.904;13.396;2023-07-13T16:14:04;3.05;;;1.40;;
13421;SDS011;6782;55.904;13.396;2023-07-13T16:16:52;2.20;;;1.70;;
13421;SDS011;6782;55.904;13.396;2023-07-13T16:19:41;2.25;;;1.50;;
13421;SDS011;6782;55.904;13.396;2023-07-13T16:22:30;2.25;;;1.35;;
13421;SDS011;6782;55.904;13.396;2023-07-13T16:25:18;1.73;;;1.10;;
13421;SDS011;6782;55.904;13.396;2023-07-13T16:28:09;3.03;;;1.30;;
13421;SDS011;6782;55.904;13.396;2023-07-13T16:30:57;2.25;;;1.50;;
13421;SDS011;6782;55.904;13.396;2023-07-13T16:33:44;1.10;;;1.10;;
13421;SDS011;6782;55.904;13.396;2023-07-13T16:36:31;1.75;;;1.30;;
13421;SDS011;6782;55.904;13.396;2023-07-13T16:39:20;1.67;;;1.10;;
13421;SDS011;6782;55.904;13.396;2023-07-13T16:42:09;2.60;;;1.38;;
13421;SDS011;6782;55.904;13.396;2023-07-13T16:44:56;1.50;;;1.30;;
13421;SDS011;6782;55.904;13.396;2023-07-13T16:47:44;2.55;;;1.23;;
13421;SDS011;6782;55.904;13.396;2023-07-13T16:50:34;2.13;;;1.08;;
13421;SDS011;6782;55.904;13.396;2023-07-13T16:53:21;2.25;;;1.20;;
13421;SDS011;6782;55.904;13.396;2023-07-13T16:56:15;1.67;;;1.20;;
13421;SDS011;6782;55.904;13.396;2023-07-13T16:59:07;1.90;;;1.20;;
13421;SDS011;6782;55.904;13.396;2023-07-13T17:02:01;1.45;;;1.20;;